Камери на живо
METAR for:LBWN (Varna Intl, VA, BU)
Text:LBWN 050900Z 07020KT 030V090 CAVOK 14/00 Q1022 NOSIG
Temperature: 14.0°C ( 57°F)
Dewpoint: 0.0°C ( 32°F) [RH = 38%]
Pressure (altimeter):30.18 inches Hg (1022.0 mb)
Winds:from the ENE (70 degrees) at 23 MPH (20 knots; 10.3 m/s)
Visibility:6 or more sm (10+ km)
Ceiling:ceiling and visibility are OK
Clouds:unknown

TAF for:LBWN (Varna Intl, VA, BU) issued at 0500 UTC 05 Apr 2020
Text:TAF LBWN 050500Z 0506/0606 04020G34KT 9999 SCT045
Forecast period:0600 UTC 05 April 2020 to 0600 UTC 06 April 2020
Forecast type:FROM: standard forecast or significant change
Winds:from the NE (40 degrees) at 23 MPH (20 knots; 10.3 m/s) gusting to 39 MPH (34 knots; 17.5 m/s)
Visibility:6 or more sm (10+ km)
Ceiling:at least 12,000 feet AGL
Clouds: scattered clouds at 4500 feet AGL